Briercrest, Canada
Current Conditions -  °F | °C
As of 7:00 PM on Wednesday 26 Nov 2014 (Local Time) from CYQR Reporting Station
Few Clouds Few Clouds  
Wind Chill: -21°   Ceiling: Unl
Heat Index: -4°   Visibility: 15mi
Dew Point: -8°   Wind: 10mph
Humidity: 85%   Direction: 140°SE
Pressure: 30.37"   Gusts: NA
Location:  50.17°N, 105.27°W
Report Text: CYQR 270100Z 14009KT 15SM FEW040 M20/M22 A3037 RMK SC1 SLP347
Loading
Personal Weather Stations






























Interactive Weather Map New forecast layout! Learn more

10-Day Weather Forecast

Advertisements
Track Severe Weather on mobile